Time;durP1;ratioP1;P1;durP2;ratioP2;P2;SDS_P1;SDS_P2;PMS_P1;PMS_P2;Temp;Humidity;BMP_temperature;BMP_pressure;BME280_temperature;BME280_humidity;BME280_pressure;Samples;Min_cycle;Max_cycle;Signal;HPM_P1;HPM_P2
2021/05/10 00:01:29;;;;;;;4.43;2.10;;;16.20;73.80;23.90;99231.00;;;;5069219;28;20327;-68
2021/05/10 00:03:55;;;;;;;4.57;2.37;;;16.20;74.00;23.80;99242.00;;;;5069779;28;20437;-68
2021/05/10 00:06:21;;;;;;;3.93;2.03;;;16.10;73.00;23.70;99233.00;;;;5052640;28;20432;-68
2021/05/10 00:08:47;;;;;;;3.93;2.00;;;16.20;73.50;23.70;99231.00;;;;5065636;28;20686;-67
2021/05/10 00:11:14;;;;;;;4.33;1.93;;;16.20;74.50;23.70;99225.00;;;;5070458;28;20201;-69
2021/05/10 00:13:44;;;;;;;5.30;2.00;;;16.10;73.40;23.60;99231.00;;;;5069296;28;20566;-68
2021/05/10 00:16:10;;;;;;;4.63;2.63;;;16.20;74.00;23.80;99232.00;;;;5068981;28;20410;-69
2021/05/10 00:18:36;;;;;;;5.07;2.50;;;16.10;74.30;23.80;99234.00;;;;5035803;28;20971;-67
2021/05/10 00:21:02;;;;;;;4.30;2.30;;;16.10;74.40;23.70;99227.00;;;;5069789;28;20177;-69
2021/05/10 00:23:27;;;;;;;4.57;2.40;;;16.20;73.70;23.80;99226.00;;;;5070411;28;20683;-68
2021/05/10 00:25:53;;;;;;;4.47;2.37;;;16.20;74.50;23.70;99236.00;;;;5052167;28;20196;-69
2021/05/10 00:28:19;;;;;;;5.10;2.07;;;16.20;74.30;23.70;99231.00;;;;5068917;28;20197;-68
2021/05/10 00:30:45;;;;;;;4.20;2.13;;;16.20;74.50;23.90;99230.00;;;;5069259;28;20547;-69
2021/05/10 00:33:10;;;;;;;3.90;2.20;;;16.10;74.50;23.80;99222.00;;;;5069446;28;20567;-69
2021/05/10 00:35:36;;;;;;;4.20;2.20;;;16.10;73.80;23.90;99216.00;;;;5069473;28;20192;-69
2021/05/10 00:38:03;;;;;;;4.30;2.20;;;16.10;74.40;23.60;99214.00;;;;5051445;28;20224;-69
2021/05/10 00:40:31;;;;;;;4.73;2.17;;;16.10;72.60;23.70;99209.00;;;;5069108;28;20185;-69
2021/05/10 00:42:57;;;;;;;3.93;2.23;;;16.10;74.40;23.70;99216.00;;;;5068899;28;20816;-69
2021/05/10 00:45:23;;;;;;;5.40;2.70;;;16.10;73.40;23.70;99205.00;;;;5035994;28;20666;-69
2021/05/10 00:47:49;;;;;;;4.10;2.07;;;16.10;74.10;23.70;99192.00;;;;5051367;28;20658;-69
2021/05/10 00:50:15;;;;;;;4.10;2.20;;;16.10;74.10;23.70;99192.00;;;;5069246;28;20434;-69
2021/05/10 00:52:41;;;;;;;3.93;1.80;;;16.10;74.20;23.60;99191.00;;;;5051155;28;20556;-69
2021/05/10 00:55:09;;;;;;;4.30;2.17;;;16.10;73.90;23.60;99195.00;;;;5070065;28;20439;-69
2021/05/10 00:57:43;;;;;;;4.33;2.37;;;16.10;74.10;23.60;99192.00;;;;5051767;28;20670;-69
2021/05/10 01:00:13;;;;;;;4.20;2.50;;;16.10;73.80;23.50;99147.00;;;;5068833;28;20405;-69
2021/05/10 01:02:39;;;;;;;4.80;2.23;;;16.10;74.20;23.60;99173.00;;;;5068472;28;20712;-68
2021/05/10 01:05:06;;;;;;;5.40;2.40;;;16.10;72.50;23.70;99188.00;;;;5051705;28;20588;-69
2021/05/10 01:07:32;;;;;;;4.10;2.13;;;16.10;74.00;23.60;99174.00;;;;5051211;28;20204;-69
2021/05/10 01:09:59;;;;;;;5.23;2.80;;;16.10;73.80;23.60;99175.00;;;;5051879;28;20436;-69
2021/05/10 01:12:25;;;;;;;4.30;1.90;;;16.10;74.00;23.70;99183.00;;;;5051062;28;20459;-69
2021/05/10 01:14:51;;;;;;;4.90;2.37;;;16.10;73.80;23.70;99174.00;;;;5068182;28;20429;-68
2021/05/10 01:17:16;;;;;;;3.87;1.93;;;16.00;73.50;23.50;99172.00;;;;5067736;28;20254;-69
2021/05/10 01:19:42;;;;;;;5.97;2.60;;;16.10;74.00;23.60;99179.00;;;;5034958;28;20214;-70
2021/05/10 01:22:08;;;;;;;5.17;2.00;;;16.10;74.00;23.60;99177.00;;;;5034403;28;20346;-69
2021/05/10 01:24:33;;;;;;;4.60;2.30;;;16.10;74.10;23.80;99193.00;;;;5035529;28;20188;-68
2021/05/10 01:26:59;;;;;;;4.70;2.50;;;16.10;73.80;23.60;99192.00;;;;5071094;28;20181;-68
2021/05/10 01:29:25;;;;;;;5.10;2.57;;;16.10;73.90;23.60;99179.00;;;;5039506;28;20177;-68
2021/05/10 01:31:50;;;;;;;5.27;2.47;;;16.00;73.50;23.60;99176.00;;;;5055083;28;20181;-69
2021/05/10 01:34:16;;;;;;;4.43;2.13;;;16.00;73.80;23.60;99168.00;;;;5073669;28;20453;-68
2021/05/10 01:36:42;;;;;;;4.37;1.93;;;16.00;73.70;23.60;99162.00;;;;5071925;28;20692;-68
2021/05/10 01:39:08;;;;;;;5.00;2.70;;;16.00;73.40;23.70;99160.00;;;;5072182;28;20184;-69
2021/05/10 01:41:33;;;;;;;4.13;2.10;;;16.00;73.10;23.60;99153.00;;;;5073895;28;20181;-68
2021/05/10 01:43:59;;;;;;;4.13;1.90;;;16.00;73.80;23.60;99141.00;;;;5071239;28;20608;-68
2021/05/10 01:46:25;;;;;;;7.23;2.30;;;16.00;72.90;23.40;99150.00;;;;5055848;28;20186;-68
2021/05/10 01:48:51;;;;;;;4.80;2.53;;;16.00;73.50;23.50;99147.00;;;;5071118;28;20555;-68
2021/05/10 01:51:22;;;;;;;4.57;2.30;;;16.00;72.30;23.60;99143.00;;;;5073408;28;20189;-68
2021/05/10 01:53:47;;;;;;;5.97;2.27;;;16.00;73.50;23.60;99134.00;;;;5072072;28;20475;-68
2021/05/10 01:56:13;;;;;;;3.83;1.97;;;16.00;71.80;23.50;99131.00;;;;5071743;28;20424;-68
2021/05/10 01:58:39;;;;;;;4.87;2.07;;;16.00;73.50;23.50;99132.00;;;;5071452;28;20559;-68
2021/05/10 02:01:05;;;;;;;7.60;2.10;;;16.00;71.10;23.50;99116.00;;;;5071994;28;20227;-70
2021/05/10 02:03:31;;;;;;;4.30;2.20;;;16.00;73.60;23.70;99121.00;;;;5071983;28;20198;-68
2021/05/10 02:05:56;;;;;;;7.03;2.90;;;16.00;71.00;23.70;99115.00;;;;5072199;28;20431;-68
2021/05/10 02:08:22;;;;;;;4.90;2.13;;;16.00;72.80;23.70;99105.00;;;;5055106;28;20205;-68
2021/05/10 02:10:50;;;;;;;5.47;2.60;;;16.00;72.10;23.50;99112.00;;;;5071499;28;20184;-68
2021/05/10 02:13:21;;;;;;;4.13;2.10;;;16.00;73.20;23.60;99113.00;;;;5071459;28;20457;-68
2021/05/10 02:15:48;;;;;;;4.43;2.10;;;16.00;72.70;23.70;99106.00;;;;5071608;28;20442;-69
2021/05/10 02:18:16;;;;;;;5.70;2.40;;;16.00;72.30;23.80;99103.00;;;;5070688;28;20434;-69
2021/05/10 02:20:42;;;;;;;5.10;2.40;;;16.00;72.20;23.70;99105.00;;;;5038713;28;20900;-68
2021/05/10 02:23:14;;;;;;;4.20;2.50;;;15.90;70.70;23.60;99096.00;;;;5070797;28;20434;-69
2021/05/10 02:25:53;;;;;;;5.10;2.20;;;15.90;71.10;23.80;99108.00;;;;5039108;28;20420;-68
2021/05/10 02:28:23;;;;;;;4.80;2.10;;;16.00;71.50;23.80;99113.00;;;;5072531;28;20455;-69
2021/05/10 02:30:49;;;;;;;4.90;2.20;;;16.00;72.10;23.70;99100.00;;;;5071331;28;20458;-69
2021/05/10 02:33:17;;;;;;;3.90;2.00;;;15.90;70.60;23.90;99101.00;;;;5037147;28;20479;-69
2021/05/10 02:35:43;;;;;;;4.07;2.10;;;15.90;71.70;23.90;99107.00;;;;5054773;28;20444;-69
2021/05/10 02:38:09;;;;;;;5.00;2.50;;;15.90;71.60;23.80;99103.00;;;;5053870;28;20502;-68
2021/05/10 02:40:35;;;;;;;4.20;2.40;;;15.90;71.50;23.90;99111.00;;;;5038380;28;20523;-68
2021/05/10 02:43:01;;;;;;;3.90;1.80;;;15.90;71.20;23.90;99105.00;;;;5054433;28;21017;-70
2021/05/10 02:45:27;;;;;;;4.20;2.07;;;15.90;72.40;23.90;99105.00;;;;5071640;28;20422;-68
2021/05/10 02:47:53;;;;;;;5.90;2.33;;;15.90;71.70;23.80;99115.00;;;;5053879;28;20497;-68
2021/05/10 02:50:21;;;;;;;3.80;2.10;;;15.90;71.80;23.60;99110.00;;;;5072463;28;20177;-69
2021/05/10 02:52:51;;;;;;;4.50;2.60;;;15.90;71.20;23.90;99102.00;;;;5038240;28;20197;-69
2021/05/10 02:55:17;;;;;;;4.50;2.30;;;15.90;71.20;23.90;99123.00;;;;5071182;28;20789;-68
2021/05/10 02:57:43;;;;;;;4.73;2.60;;;15.90;71.30;23.90;99120.00;;;;5072060;28;20509;-69
2021/05/10 03:00:11;;;;;;;4.70;2.43;;;15.90;71.10;23.80;99124.00;;;;5053434;28;20477;-69
2021/05/10 03:02:36;;;;;;;4.20;2.20;;;15.90;71.60;23.90;99095.00;;;;5070479;28;20681;-69
2021/05/10 03:05:05;;;;;;;4.10;2.10;;;15.90;71.70;23.60;99119.00;;;;5037105;28;21059;-68
2021/05/10 03:07:34;;;;;;;4.90;2.03;;;15.90;73.00;23.80;99121.00;;;;5070459;28;20197;-68
2021/05/10 03:10:00;;;;;;;4.20;2.13;;;15.90;71.60;23.90;99110.00;;;;5070138;28;20455;-68
2021/05/10 03:12:28;;;;;;;4.20;2.10;;;15.90;71.00;23.80;99118.00;;;;5070532;28;20425;-69
2021/05/10 03:14:53;;;;;;;4.20;2.47;;;15.90;71.10;23.90;99114.00;;;;5053242;28;20436;-68
2021/05/10 03:17:19;;;;;;;4.90;2.30;;;15.90;72.20;23.80;99125.00;;;;5071538;28;20467;-68
2021/05/10 03:19:45;;;;;;;4.50;2.17;;;15.90;71.50;23.70;99132.00;;;;5036900;28;20236;-68
2021/05/10 03:22:10;;;;;;;4.53;2.40;;;15.90;71.60;23.60;99129.00;;;;5071676;28;20189;-68
2021/05/10 03:24:36;;;;;;;4.30;2.37;;;15.80;71.60;23.60;99111.00;;;;5070588;28;20181;-68
2021/05/10 03:27:02;;;;;;;5.10;2.77;;;15.90;71.80;23.70;99128.00;;;;5070528;28;20688;-69
2021/05/10 03:29:28;;;;;;;4.90;2.20;;;15.80;71.80;23.60;99128.00;;;;5036820;28;20181;-68
2021/05/10 03:31:54;;;;;;;5.23;2.00;;;15.80;72.00;23.90;99125.00;;;;5071513;28;20925;-68
2021/05/10 03:34:19;;;;;;;5.03;2.40;;;15.80;71.70;23.90;99137.00;;;;5071127;28;20216;-69
2021/05/10 03:36:45;;;;;;;5.47;2.63;;;15.80;72.20;23.90;99120.00;;;;5036681;28;20224;-68
2021/05/10 03:39:11;;;;;;;5.70;2.53;;;15.80;72.10;23.80;99119.00;;;;5071107;28;20484;-70
2021/05/10 03:41:36;;;;;;;4.50;2.30;;;15.80;71.70;23.80;99130.00;;;;5071520;28;20675;-68
2021/05/10 03:44:02;;;;;;;3.90;2.10;;;15.80;71.60;23.60;99121.00;;;;5052666;28;20204;-68
2021/05/10 03:46:28;;;;;;;4.67;2.30;;;15.80;72.40;23.80;99126.00;;;;5069978;28;20181;-68
2021/05/10 03:48:54;;;;;;;5.50;2.40;;;15.80;71.50;23.90;99127.00;;;;5068143;28;20466;-68
2021/05/10 03:51:20;;;;;;;4.30;2.47;;;15.80;72.00;23.70;99139.00;;;;5053688;28;20186;-69
2021/05/10 03:53:45;;;;;;;4.70;2.27;;;15.80;72.30;23.70;99142.00;;;;5070258;28;20224;-68
2021/05/10 03:56:11;;;;;;;4.33;2.23;;;15.80;72.10;23.80;99133.00;;;;5053250;28;20316;-68
2021/05/10 03:58:38;;;;;;;3.80;2.07;;;15.80;72.40;23.80;99141.00;;;;5069658;28;20689;-68
2021/05/10 04:01:04;;;;;;;4.30;2.40;;;15.80;72.50;23.80;99148.00;;;;5069807;28;20189;-69
2021/05/10 04:03:50;;;;;;;5.77;2.40;;;15.80;72.90;23.80;99151.00;;;;5052231;28;20433;-69
2021/05/10 04:14:33;;;;;;;4.30;2.07;;;15.80;72.50;23.80;99152.00;;;;5002279;28;20963;-68
2021/05/10 04:16:59;;;;;;;4.57;2.50;;;15.80;72.60;23.80;99159.00;;;;5069484;28;20443;-68
2021/05/10 04:19:25;;;;;;;4.47;2.07;;;15.80;72.40;23.80;99159.00;;;;5068787;28;20177;-68
2021/05/10 04:21:51;;;;;;;4.00;2.07;;;15.80;72.80;23.90;99165.00;;;;5052942;28;20497;-69
2021/05/10 04:24:17;;;;;;;4.30;2.10;;;15.80;73.10;24.00;99163.00;;;;5068944;28;20537;-68
2021/05/10 04:26:42;;;;;;;4.30;2.37;;;15.80;73.00;23.90;99168.00;;;;5070893;28;20210;-69
2021/05/10 04:29:08;;;;;;;4.43;2.40;;;15.80;72.60;23.90;99161.00;;;;5069877;28;20749;-68
2021/05/10 04:31:34;;;;;;;4.50;2.10;;;15.80;72.80;23.70;99172.00;;;;5068945;28;20169;-69
2021/05/10 04:33:59;;;;;;;4.17;2.07;;;15.80;72.90;23.60;99165.00;;;;5069885;28;20758;-69
2021/05/10 04:36:25;;;;;;;4.73;2.27;;;15.80;72.60;23.50;99163.00;;;;5068759;28;20236;-69
2021/05/10 04:38:51;;;;;;;4.30;2.10;;;15.80;72.60;23.40;99167.00;;;;5068873;28;20211;-69
2021/05/10 04:41:16;;;;;;;4.23;2.20;;;15.80;72.70;23.00;99161.00;;;;5052446;28;20182;-68
2021/05/10 04:43:42;;;;;;;4.20;2.27;;;15.70;72.50;23.40;99160.00;;;;5052175;28;20201;-69
2021/05/10 04:46:08;;;;;;;4.10;2.33;;;15.80;72.80;23.50;99151.00;;;;5068820;28;20182;-70
2021/05/10 04:48:33;;;;;;;4.10;1.97;;;15.80;73.20;23.60;99147.00;;;;5052109;28;20662;-69
2021/05/10 04:50:59;;;;;;;3.80;1.63;;;15.80;73.00;23.70;99148.00;;;;5051632;28;20252;-68
2021/05/10 04:53:25;;;;;;;4.30;2.17;;;15.80;73.10;23.60;99138.00;;;;5068763;28;20220;-68
2021/05/10 04:55:50;;;;;;;4.43;2.33;;;15.80;72.80;23.70;99145.00;;;;5068046;28;20658;-68
2021/05/10 04:58:16;;;;;;;5.13;2.77;;;15.70;72.60;23.70;99137.00;;;;5068543;28;20209;-68
2021/05/10 05:00:42;;;;;;;4.10;2.13;;;15.70;72.30;23.90;99143.00;;;;5068149;28;20177;-69
2021/05/10 05:03:08;;;;;;;4.70;2.30;;;15.70;73.20;23.70;99147.00;;;;5070143;28;20209;-69
2021/05/10 05:05:33;;;;;;;4.63;2.43;;;15.70;72.80;23.30;99150.00;;;;5068122;28;20185;-68
2021/05/10 05:07:59;;;;;;;4.50;2.37;;;15.80;73.20;23.60;99147.00;;;;5068524;28;20201;-68
2021/05/10 05:10:25;;;;;;;4.80;2.10;;;15.70;73.70;23.50;99144.00;;;;5069373;28;20504;-68
2021/05/10 05:12:51;;;;;;;6.10;2.80;;;15.70;72.90;23.50;99154.00;;;;5068680;28;20227;-68
2021/05/10 05:15:18;;;;;;;5.80;2.30;;;15.80;74.00;23.50;99172.00;;;;5051199;28;20185;-68
2021/05/10 05:17:43;;;;;;;4.90;2.53;;;15.80;73.60;23.30;99177.00;;;;5068494;28;20235;-68
2021/05/10 05:20:10;;;;;;;4.00;2.03;;;15.80;74.00;23.50;99173.00;;;;5067883;28;20467;-68
2021/05/10 05:22:36;;;;;;;4.60;2.10;;;15.80;74.00;23.60;99181.00;;;;5068869;28;20223;-68
2021/05/10 05:25:06;;;;;;;4.43;2.10;;;15.80;73.70;23.60;99179.00;;;;5034483;28;20431;-69
2021/05/10 05:27:32;;;;;;;4.90;2.30;;;15.70;74.10;23.50;99177.00;;;;5051773;28;20447;-68
2021/05/10 05:29:57;;;;;;;4.43;2.53;;;15.80;73.70;23.40;99178.00;;;;5069546;28;20820;-68
2021/05/10 05:32:23;;;;;;;4.43;2.00;;;15.80;74.10;23.30;99176.00;;;;5069875;28;20197;-68
2021/05/10 05:34:51;;;;;;;4.70;2.60;;;15.80;73.80;23.30;99176.00;;;;5034819;28;20203;-68
2021/05/10 05:37:16;;;;;;;5.60;2.53;;;15.80;74.30;23.30;99185.00;;;;5051950;28;20245;-68
2021/05/10 05:39:42;;;;;;;4.87;2.20;;;15.70;74.10;23.30;99182.00;;;;5068304;28;20502;-69
2021/05/10 05:42:08;;;;;;;4.80;2.63;;;15.80;74.50;23.20;99178.00;;;;5069819;28;20201;-68
2021/05/10 05:44:36;;;;;;;4.57;2.60;;;15.70;74.50;23.10;99178.00;;;;5070068;28;20196;-70
2021/05/10 05:47:04;;;;;;;4.33;2.10;;;15.80;74.70;23.30;99189.00;;;;5051894;28;20241;-67
2021/05/10 05:49:34;;;;;;;4.60;2.50;;;15.80;74.30;23.30;99188.00;;;;5069169;28;20443;-68
2021/05/10 05:52:03;;;;;;;4.80;2.43;;;15.80;74.60;23.30;99187.00;;;;5068150;28;20989;-68
2021/05/10 05:54:29;;;;;;;4.87;2.40;;;15.80;74.50;23.20;99193.00;;;;5068853;28;20879;-68
2021/05/10 05:56:55;;;;;;;4.93;2.23;;;15.80;74.60;23.30;99203.00;;;;5051277;28;20406;-68
2021/05/10 05:59:21;;;;;;;6.53;2.57;;;15.80;74.20;23.40;99192.00;;;;5051905;28;20447;-68
2021/05/10 06:01:48;;;;;;;4.57;2.20;;;15.80;74.60;23.40;99202.00;;;;5066068;28;20185;-68
2021/05/10 06:04:14;;;;;;;4.50;2.60;;;15.80;74.90;23.30;99200.00;;;;5049103;28;20185;-68
2021/05/10 06:06:39;;;;;;;4.90;2.57;;;15.80;75.20;23.20;99198.00;;;;5067281;28;20449;-68
2021/05/10 06:09:08;;;;;;;4.70;2.50;;;15.80;74.90;23.40;99197.00;;;;5068642;28;20655;-68
2021/05/10 06:11:34;;;;;;;6.20;2.53;;;15.80;75.00;23.40;99203.00;;;;5066890;28;20197;-68
2021/05/10 06:14:00;;;;;;;3.80;1.90;;;15.80;75.00;23.60;99187.00;;;;5053759;28;20449;-68
2021/05/10 06:16:32;;;;;;;4.50;2.40;;;15.80;75.00;23.60;99190.00;;;;5070263;28;20177;-68
2021/05/10 06:18:58;;;;;;;4.30;2.50;;;15.80;75.00;23.60;99186.00;;;;5070521;28;20846;-68
2021/05/10 06:21:23;;;;;;;4.47;2.30;;;15.80;75.00;23.60;99201.00;;;;5070747;28;20443;-68
2021/05/10 06:23:49;;;;;;;4.93;2.30;;;15.80;75.10;23.40;99195.00;;;;5071732;28;20516;-67
2021/05/10 06:26:15;;;;;;;4.40;2.40;;;15.80;75.10;23.50;99196.00;;;;5070306;28;20256;-69
2021/05/10 06:28:41;;;;;;;4.10;2.33;;;15.80;75.20;23.30;99199.00;;;;5020771;28;20482;-68
2021/05/10 06:31:08;;;;;;;4.03;2.57;;;15.80;75.10;23.40;99199.00;;;;5053723;28;20465;-68
2021/05/10 06:33:34;;;;;;;4.07;2.17;;;15.80;75.20;23.30;99215.00;;;;5070870;28;20485;-68
2021/05/10 06:36:00;;;;;;;4.80;2.60;;;15.80;75.20;23.30;99204.00;;;;5070470;28;20462;-68
2021/05/10 06:38:25;;;;;;;4.67;2.43;;;15.80;75.10;23.30;99212.00;;;;5070111;28;20502;-68
2021/05/10 06:40:51;;;;;;;4.50;2.33;;;15.80;75.10;23.10;99212.00;;;;5069876;28;20667;-69
2021/05/10 06:43:18;;;;;;;5.10;2.43;;;15.80;75.10;23.20;99223.00;;;;5070700;28;20197;-68
2021/05/10 06:45:43;;;;;;;4.93;2.73;;;15.80;75.10;23.40;99218.00;;;;5070049;28;20184;-68
2021/05/10 06:48:09;;;;;;;4.60;2.60;;;15.80;75.10;23.30;99222.00;;;;5071153;28;20882;-68
2021/05/10 06:50:35;;;;;;;4.70;2.43;;;15.80;75.10;23.20;99217.00;;;;5070827;28;20181;-68
2021/05/10 06:53:00;;;;;;;4.60;2.37;;;15.80;75.10;23.30;99228.00;;;;5070969;28;20252;-69
2021/05/10 06:55:26;;;;;;;5.00;2.77;;;15.80;75.10;23.30;99230.00;;;;5054270;28;20185;-68
2021/05/10 06:57:52;;;;;;;5.43;2.70;;;15.80;74.80;23.50;99219.00;;;;5071941;28;20197;-68
2021/05/10 07:00:18;;;;;;;5.27;2.80;;;15.80;74.80;23.40;99188.00;;;;5072465;28;20189;-68
2021/05/10 07:02:44;;;;;;;5.20;2.57;;;15.80;74.90;23.50;99219.00;;;;5071582;28;20558;-68
2021/05/10 07:05:10;;;;;;;6.23;2.33;;;15.80;75.00;24.00;99220.00;;;;5054051;28;20415;-68
2021/05/10 07:07:36;;;;;;;7.13;2.63;;;15.80;74.80;24.00;99223.00;;;;5070262;28;20680;-69
2021/05/10 07:10:03;;;;;;;6.50;2.70;;;15.80;75.20;23.80;99224.00;;;;5054260;28;20410;-70
2021/05/10 07:12:29;;;;;;;6.83;2.50;;;15.90;75.60;23.70;99215.00;;;;5053601;28;20459;-68
2021/05/10 07:14:54;;;;;;;5.40;2.40;;;15.80;75.50;23.40;99198.00;;;;5070929;28;20435;-69
2021/05/10 07:17:20;;;;;;;4.97;2.53;;;15.80;75.50;23.40;99230.00;;;;5070326;28;20286;-68
2021/05/10 07:19:46;;;;;;;4.50;2.30;;;15.80;75.50;23.70;99209.00;;;;5070195;28;20173;-69
2021/05/10 07:22:11;;;;;;;8.57;2.70;;;15.80;75.30;23.50;99198.00;;;;5070324;28;20608;-68
2021/05/10 07:24:37;;;;;;;5.93;2.50;;;15.80;75.50;23.50;99210.00;;;;5052951;28;20185;-69
2021/05/10 07:27:03;;;;;;;5.63;2.80;;;15.80;75.50;23.40;99208.00;;;;5069911;28;20197;-68
2021/05/10 07:29:29;;;;;;;4.93;2.63;;;15.80;75.60;23.40;99218.00;;;;5054060;28;20554;-71
2021/05/10 07:31:54;;;;;;;6.10;2.53;;;15.80;75.60;23.40;99213.00;;;;5070094;28;20260;-69
2021/05/10 07:34:22;;;;;;;7.83;2.90;;;15.80;75.70;23.30;99230.00;;;;5069541;28;20697;-70
2021/05/10 07:36:48;;;;;;;7.70;2.50;;;15.80;75.60;23.40;99213.00;;;;5053340;28;20243;-68
2021/05/10 07:39:13;;;;;;;4.80;2.37;;;15.80;75.60;23.40;99208.00;;;;5070392;28;20427;-69
2021/05/10 07:41:39;;;;;;;4.30;2.47;;;15.80;75.60;23.30;99203.00;;;;5070004;28;20177;-69
2021/05/10 07:44:05;;;;;;;6.03;2.53;;;15.80;75.70;23.40;99207.00;;;;5071078;28;20667;-71
2021/05/10 07:46:31;;;;;;;5.77;2.67;;;15.80;75.60;23.40;99195.00;;;;5069443;28;20193;-69
2021/05/10 07:48:56;;;;;;;4.73;2.10;;;15.80;75.60;23.40;99192.00;;;;5053144;28;20447;-69
2021/05/10 07:51:22;;;;;;;4.43;2.50;;;15.80;75.60;23.60;99192.00;;;;5071330;28;20211;-69
2021/05/10 07:53:49;;;;;;;4.43;2.30;;;15.80;75.70;23.40;99198.00;;;;5069721;28;20228;-69
2021/05/10 07:56:14;;;;;;;8.93;2.57;;;15.80;75.70;23.50;99185.00;;;;5053283;28;20177;-68
2021/05/10 07:58:44;;;;;;;5.10;2.87;;;15.80;75.80;23.50;99187.00;;;;5069211;28;20455;-69
2021/05/10 08:01:10;;;;;;;4.83;2.93;;;15.80;75.80;23.40;99191.00;;;;5069989;28;20181;-68
2021/05/10 08:03:36;;;;;;;5.10;2.67;;;15.80;76.00;23.40;99177.00;;;;5070089;28;20445;-69
2021/05/10 08:06:02;;;;;;;4.57;2.40;;;15.80;76.00;23.50;99178.00;;;;5069841;28;20704;-70
2021/05/10 08:08:28;;;;;;;4.97;2.70;;;15.80;76.00;23.70;99176.00;;;;5036160;28;20525;-68
2021/05/10 08:10:53;;;;;;;5.53;2.70;;;15.80;76.00;23.50;99158.00;;;;5070933;28;20528;-70
2021/05/10 08:13:19;;;;;;;5.37;2.43;;;15.80;76.00;23.40;99174.00;;;;5052398;28;20475;-68
2021/05/10 08:15:45;;;;;;;5.13;2.10;;;15.90;76.20;23.50;99174.00;;;;5036081;28;20440;-69
2021/05/10 08:18:12;;;;;;;5.20;2.47;;;15.90;76.10;23.40;99184.00;;;;5035954;28;20455;-69
2021/05/10 08:20:42;;;;;;;4.37;2.30;;;15.90;76.30;23.40;99185.00;;;;5052995;28;20207;-69
2021/05/10 08:23:08;;;;;;;6.90;3.00;;;15.90;76.20;23.40;99185.00;;;;5019365;28;20938;-69
2021/05/10 08:25:34;;;;;;;6.03;2.50;;;15.90;76.30;23.40;99190.00;;;;5069449;28;20485;-69
2021/05/10 08:28:00;;;;;;;4.93;2.80;;;15.90;76.40;23.40;99193.00;;;;5035565;28;20374;-69
2021/05/10 08:30:25;;;;;;;5.77;2.80;;;15.90;76.30;23.40;99186.00;;;;5070482;28;20705;-68
2021/05/10 08:32:53;;;;;;;4.47;2.33;;;15.90;76.30;23.50;99191.00;;;;5052086;28;20209;-69
2021/05/10 08:35:18;;;;;;;5.07;2.60;;;15.90;76.50;23.60;99196.00;;;;5070056;28;20185;-68
2021/05/10 08:37:44;;;;;;;4.70;2.50;;;15.90;76.50;23.60;99200.00;;;;5051414;28;20483;-69
2021/05/10 08:40:10;;;;;;;5.93;3.07;;;15.90;76.50;23.60;99180.00;;;;5068648;28;20181;-71
2021/05/10 08:42:36;;;;;;;7.77;2.70;;;15.90;76.50;23.60;99189.00;;;;5068868;28;20197;-68
2021/05/10 08:45:03;;;;;;;4.07;2.30;;;15.90;76.50;23.50;99184.00;;;;5068569;28;20406;-69
2021/05/10 08:47:32;;;;;;;4.53;2.30;;;15.90;76.50;23.60;99171.00;;;;5068096;28;20217;-69
2021/05/10 08:50:04;;;;;;;4.87;2.50;;;15.90;76.50;23.70;99161.00;;;;5066853;28;20417;-69
2021/05/10 08:52:30;;;;;;;5.37;2.63;;;15.90;76.60;23.70;99161.00;;;;5050365;28;20608;-69
2021/05/10 08:54:55;;;;;;;5.40;2.70;;;15.90;76.60;23.60;99160.00;;;;5034355;28;20410;-69
2021/05/10 08:57:21;;;;;;;5.07;2.67;;;15.90;76.60;23.50;99159.00;;;;5068662;28;20193;-68
2021/05/10 08:59:47;;;;;;;5.00;2.20;;;15.90;76.70;23.50;99170.00;;;;5064512;28;20672;-68
2021/05/10 09:02:13;;;;;;;5.63;2.70;;;15.90;76.70;23.50;99177.00;;;;5065130;28;20258;-69
2021/05/10 09:04:40;;;;;;;4.63;2.87;;;15.90;76.80;23.30;99181.00;;;;5015899;28;20196;-69
2021/05/10 09:07:20;;;;;;;5.57;2.60;;;15.90;76.80;23.60;99167.00;;;;5067961;28;20603;-69
2021/05/10 09:09:59;;;;;;;4.20;2.20;;;15.90;76.80;23.50;99166.00;;;;5050666;28;20410;-68
2021/05/10 09:12:52;;;;;;;5.30;2.73;;;15.90;76.80;23.40;99172.00;;;;5067950;28;20434;-69
2021/05/10 09:15:27;;;;;;;6.00;3.03;;;15.90;76.80;23.50;99169.00;;;;5067331;28;20429;-69
2021/05/10 09:17:54;;;;;;;4.40;2.30;;;15.90;76.90;23.50;99166.00;;;;5066934;28;20825;-69
2021/05/10 09:20:37;;;;;;;5.27;2.53;;;15.90;76.90;23.50;99167.00;;;;5067082;28;20421;-68
2021/05/10 09:23:14;;;;;;;5.83;3.07;;;16.00;77.10;23.50;99160.00;;;;5067376;28;20484;-69
2021/05/10 09:25:41;;;;;;;4.40;2.77;;;16.00;77.10;23.70;99179.00;;;;5051515;28;20398;-69
2021/05/10 09:28:21;;;;;;;4.90;2.70;;;16.00;77.30;23.50;99164.00;;;;5050908;28;20509;-69
2021/05/10 09:30:48;;;;;;;7.00;2.47;;;16.00;77.10;23.50;99172.00;;;;5050706;28;20427;-69
2021/05/10 09:33:25;;;;;;;4.50;2.33;;;16.00;77.10;23.70;99174.00;;;;5067009;28;20478;-68
2021/05/10 09:36:05;;;;;;;5.00;2.40;;;16.00;77.20;23.60;99169.00;;;;5052119;28;20829;-70
2021/05/10 09:38:31;;;;;;;5.17;2.47;;;16.00;77.30;23.80;99175.00;;;;5051572;28;20430;-69
2021/05/10 09:41:07;;;;;;;4.90;2.30;;;16.00;77.30;23.60;99181.00;;;;5047757;28;20790;-70
2021/05/10 09:43:38;;;;;;;4.70;2.37;;;16.00;77.30;23.60;99177.00;;;;5035957;28;20220;-68
2021/05/10 09:46:11;;;;;;;5.10;2.57;;;16.00;77.40;23.70;99178.00;;;;5067031;28;20414;-68
2021/05/10 09:48:39;;;;;;;5.00;2.17;;;16.00;77.50;23.60;99164.00;;;;5069274;28;20454;-69
2021/05/10 09:51:15;;;;;;;5.00;2.27;;;16.00;77.40;23.80;99170.00;;;;5072050;28;20849;-69
2021/05/10 09:53:42;;;;;;;4.30;2.60;;;16.00;77.40;23.80;99182.00;;;;5039563;28;20470;-68
2021/05/10 09:56:24;;;;;;;4.90;2.50;;;16.00;77.50;23.90;99186.00;;;;5071704;28;20406;-69
2021/05/10 09:58:49;;;;;;;4.73;2.90;;;16.00;77.50;23.90;99181.00;;;;5072555;28;20418;-69
2021/05/10 10:01:15;;;;;;;6.03;2.43;;;16.10;77.70;23.90;99190.00;;;;5073195;28;20464;-69
2021/05/10 10:03:43;;;;;;;5.10;2.57;;;16.00;77.60;23.70;99182.00;;;;5038527;28;20201;-68
2021/05/10 10:06:16;;;;;;;6.07;2.57;;;16.10;77.80;23.80;99185.00;;;;5021593;28;20443;-68
2021/05/10 10:08:44;;;;;;;4.87;2.77;;;16.10;77.80;23.70;99187.00;;;;5038665;28;20497;-69
2021/05/10 10:11:18;;;;;;;4.30;2.43;;;16.10;77.80;23.80;99168.00;;;;5055372;28;20435;-69
2021/05/10 10:13:45;;;;;;;4.40;2.43;;;16.10;77.80;23.70;99207.00;;;;5070883;28;20473;-68
2021/05/10 10:16:11;;;;;;;6.00;2.73;;;16.10;77.90;23.90;99210.00;;;;5071382;28;20435;-68
2021/05/10 10:18:41;;;;;;;5.50;2.60;;;16.10;77.90;24.10;99207.00;;;;5054656;28;20455;-68
2021/05/10 10:21:09;;;;;;;5.07;2.53;;;16.10;78.00;23.90;99196.00;;;;5072814;28;20431;-69
2021/05/10 10:23:35;;;;;;;4.50;2.27;;;16.10;78.00;24.00;99190.00;;;;5054012;28;20434;-69
2021/05/10 10:26:05;;;;;;;5.97;2.40;;;16.10;78.00;23.90;99192.00;;;;5055200;28;20501;-69
2021/05/10 10:28:31;;;;;;;5.80;2.80;;;16.10;78.00;23.90;99181.00;;;;5055344;28;20529;-69
2021/05/10 10:31:18;;;;;;;4.37;2.33;;;16.10;78.10;24.10;99172.00;;;;5037977;28;20478;-69
2021/05/10 10:33:49;;;;;;;4.90;2.63;;;16.10;78.10;24.10;99170.00;;;;5053741;28;20229;-68
2021/05/10 10:36:21;;;;;;;4.83;2.10;;;16.10;78.10;24.10;99182.00;;;;5068081;28;20567;-69
2021/05/10 10:38:47;;;;;;;4.93;2.70;;;16.10;78.10;24.10;99184.00;;;;5037696;28;20437;-69
2021/05/10 10:41:21;;;;;;;4.50;2.50;;;16.10;78.30;24.10;99181.00;;;;5038016;28;20447;-69
2021/05/10 10:43:48;;;;;;;4.77;2.80;;;16.10;78.30;24.10;99173.00;;;;5054096;28;20197;-69
2021/05/10 10:46:21;;;;;;;4.63;2.37;;;16.20;78.40;24.10;99185.00;;;;5070892;28;20411;-69
2021/05/10 10:48:47;;;;;;;4.20;2.43;;;16.10;78.30;24.10;99180.00;;;;5054262;28;20564;-69
2021/05/10 10:51:14;;;;;;;5.40;2.80;;;16.10;78.40;24.10;99171.00;;;;5070364;28;20410;-70
2021/05/10 10:53:55;;;;;;;5.07;2.50;;;16.20;78.50;24.20;99179.00;;;;5054599;28;20486;-69
2021/05/10 10:56:59;;;;;;;5.37;2.63;;;16.20;78.50;23.90;99178.00;;;;5071431;28;20489;-69
2021/05/10 10:59:30;;;;;;;5.90;2.70;;;16.10;78.50;24.10;99194.00;;;;5055020;28;20401;-69
2021/05/10 11:01:57;;;;;;;4.20;2.17;;;16.20;78.60;24.10;99180.00;;;;5071978;28;20436;-69
2021/05/10 11:04:28;;;;;;;4.83;2.50;;;16.20;78.70;24.20;99184.00;;;;5053337;28;20407;-69